Time;durP1;ratioP1;P1;durP2;ratioP2;P2;SDS_P1;SDS_P2;PMS_P1;PMS_P2;Temp;Humidity;BMP_temperature;BMP_pressure;BME280_temperature;BME280_humidity;BME280_pressure;Samples;Min_cycle;Max_cycle;Signal;HPM_P1;HPM_P2
2023/05/24 00:00:23;;;;;;;192.82;83.82;;;;;;;17.93;48.15;101779.91;4987987;28;20042;-71
2023/05/24 00:02:48;;;;;;;162.80;61.17;;;;;;;17.93;48.39;101780.81;4992381;28;20026;-71
2023/05/24 00:05:15;;;;;;;168.40;72.50;;;;;;;17.94;48.16;101779.00;5004662;28;20045;-71
2023/05/24 00:07:41;;;;;;;174.13;62.58;;;;;;;17.93;48.03;101780.81;4978475;28;20026;-71
2023/05/24 00:10:07;;;;;;;161.23;60.05;;;;;;;17.92;48.51;101778.22;5006288;28;20032;-71
2023/05/24 00:12:32;;;;;;;174.05;69.65;;;;;;;17.92;47.83;101773.78;4989418;28;20411;-71
2023/05/24 00:14:59;;;;;;;168.27;61.50;;;;;;;17.92;48.40;101765.00;4991564;28;20030;-71
2023/05/24 00:17:24;;;;;;;165.30;60.60;;;;;;;17.92;48.42;101771.13;5007147;28;20030;-71
2023/05/24 00:19:51;;;;;;;169.65;61.58;;;;;;;17.93;48.45;101764.06;5011145;28;20022;-70
2023/05/24 00:22:19;;;;;;;172.57;65.90;;;;;;;17.91;48.31;101769.38;4998582;28;20034;-71
2023/05/24 00:24:45;;;;;;;179.90;63.15;;;;;;;17.91;48.47;101761.44;5000181;28;20034;-69
2023/05/24 00:27:11;;;;;;;164.07;60.72;;;;;;;17.91;47.87;101769.38;4995479;28;20025;-70
2023/05/24 00:29:36;;;;;;;171.05;63.85;;;;;;;17.91;47.86;101761.44;5038882;22;20067;-71
2023/05/24 00:32:01;;;;;;;169.85;64.43;;;;;;;17.91;48.09;101761.44;5052455;28;20032;-71
2023/05/24 00:34:27;;;;;;;167.95;64.35;;;;;;;17.89;48.17;101760.63;5043836;28;20023;-71
2023/05/24 00:36:52;;;;;;;174.75;64.90;;;;;;;17.91;47.93;101758.78;5035308;28;20036;-70
2023/05/24 00:39:17;;;;;;;178.18;64.55;;;;;;;17.89;48.01;101758.00;5036483;28;20067;-71
2023/05/24 00:41:42;;;;;;;169.05;63.63;;;;;;;17.89;47.91;101755.34;5041045;28;20053;-71
2023/05/24 00:44:09;;;;;;;171.13;63.38;;;;;;;17.90;47.66;101759.69;5035825;28;20367;-71
2023/05/24 00:46:35;;;;;;;177.18;65.88;;;;;;;17.90;48.43;101743.84;5029612;28;21380;-71
2023/05/24 00:49:00;;;;;;;180.20;65.90;;;;;;;17.89;48.07;101755.34;5021186;28;20113;-70
2023/05/24 00:51:30;;;;;;;174.40;64.68;;;;;;;17.88;47.58;101750.97;5037974;28;20616;-72
2023/05/24 00:53:56;;;;;;;166.65;63.38;;;;;;;17.89;48.22;101752.69;5038244;28;20029;-71
2023/05/24 00:56:22;;;;;;;186.98;65.57;;;;;;;17.88;48.38;101751.81;5035863;28;20051;-71
2023/05/24 00:58:49;;;;;;;170.23;63.03;;;;;;;17.89;48.27;101752.69;5031247;28;20035;-71
2023/05/24 01:01:14;;;;;;;169.75;62.97;;;;;;;17.87;48.18;101750.13;5030215;28;20175;-70
2023/05/24 01:03:40;;;;;;;170.80;63.03;;;;;;;17.88;48.38;101750.97;5038074;28;20529;-72
2023/05/24 01:06:06;;;;;;;174.88;65.80;;;;;;;17.87;47.99;101754.50;5027976;28;20021;-70
2023/05/24 01:08:41;;;;;;;172.05;63.35;;;;;;;17.88;48.59;101750.97;5031520;28;20043;-71
2023/05/24 01:11:21;;;;;;;169.50;64.70;;;;;;;17.88;47.68;101745.69;5020543;28;20024;-72
2023/05/24 01:14:08;;;;;;;168.35;62.72;;;;;;;17.87;48.44;101750.13;5043449;28;20100;-72
2023/05/24 01:16:45;;;;;;;163.27;63.70;;;;;;;17.87;48.35;101743.94;5016884;28;20100;-71
2023/05/24 01:19:32;;;;;;;165.50;62.58;;;;;;;17.87;48.12;101741.28;5007051;28;20026;-72
2023/05/24 01:22:17;;;;;;;164.90;61.97;;;;;;;17.87;48.37;101743.94;5035007;28;20029;-72
2023/05/24 01:24:57;;;;;;;166.43;63.00;;;;;;;17.86;48.23;101737.81;5037196;28;20022;-72
2023/05/24 01:27:23;;;;;;;163.63;61.88;;;;;;;17.84;48.13;101730.81;5038602;28;20033;-71
2023/05/24 01:29:52;;;;;;;166.10;63.22;;;;;;;17.87;47.65;101733.38;5042358;28;20128;-71
2023/05/24 01:32:20;;;;;;;172.27;64.85;;;;;;;17.86;48.60;101736.91;5010703;28;20124;-71
2023/05/24 01:34:45;;;;;;;175.85;64.47;;;;;;;17.85;48.18;101724.63;5015217;28;20052;-71
2023/05/24 01:37:10;;;;;;;174.43;64.88;;;;;;;17.86;48.40;101726.34;5031813;28;20133;-71
2023/05/24 01:39:36;;;;;;;170.55;63.72;;;;;;;17.84;48.36;101731.69;5035400;28;20056;-71
2023/05/24 01:42:26;;;;;;;172.35;64.40;;;;;;;17.85;47.82;101733.41;5041395;28;20037;-71
2023/05/24 01:45:03;;;;;;;171.73;63.90;;;;;;;17.84;47.71;101738.75;5042758;28;20123;-70
2023/05/24 01:48:01;;;;;;;167.07;64.40;;;;;;;17.85;48.55;101737.84;5039730;28;20025;-71
2023/05/24 01:50:30;;;;;;;170.40;64.70;;;;;;;17.84;48.31;101728.19;5012003;28;20479;-71
2023/05/24 01:53:02;;;;;;;178.10;65.07;;;;;;;17.83;47.85;101732.63;5012812;28;20398;-71
2023/05/24 01:55:28;;;;;;;165.02;63.33;;;;;;;17.83;48.57;101726.44;5036829;28;20319;-73
2023/05/24 01:57:57;;;;;;;169.75;63.55;;;;;;;17.82;48.43;101720.31;5039783;28;20056;-71
2023/05/24 02:00:23;;;;;;;166.40;64.57;;;;;;;17.83;48.44;101723.81;5020739;28;20049;-71
2023/05/24 02:02:49;;;;;;;164.90;63.80;;;;;;;17.82;47.89;101728.22;5041747;28;20026;-72
2023/05/24 02:05:14;;;;;;;168.07;62.65;;;;;;;17.83;47.78;101729.09;5035815;28;20033;-70
2023/05/24 02:07:40;;;;;;;166.73;62.95;;;;;;;17.83;48.54;101726.44;5032994;28;20044;-71
2023/05/24 02:10:06;;;;;;;165.65;61.95;;;;;;;17.83;47.71;101731.72;5040745;28;20029;-71
2023/05/24 02:12:31;;;;;;;167.05;63.45;;;;;;;17.82;47.77;101728.22;5031263;28;20032;-71
2023/05/24 02:14:57;;;;;;;179.75;64.95;;;;;;;17.82;48.43;101725.59;5030110;28;20021;-71
2023/05/24 02:17:25;;;;;;;171.98;64.25;;;;;;;17.81;48.49;101725.63;5024444;28;20482;-71
2023/05/24 02:19:50;;;;;;;170.40;64.10;;;;;;;17.82;48.29;101724.72;5027367;28;20359;-70
2023/05/24 02:22:16;;;;;;;169.45;65.35;;;;;;;17.82;48.55;101724.72;5011673;28;20040;-71
2023/05/24 02:24:42;;;;;;;179.90;65.20;;;;;;;17.81;48.32;101723.84;5054259;28;20025;-71
2023/05/24 02:27:07;;;;;;;174.27;63.78;;;;;;;17.82;48.18;101724.72;5035918;28;20116;-71
2023/05/24 02:29:33;;;;;;;168.07;64.50;;;;;;;17.81;48.54;101723.84;5024572;28;20099;-72
2023/05/24 02:31:58;;;;;;;158.90;62.10;;;;;;;17.82;48.08;101724.72;5042528;28;20033;-72
2023/05/24 02:34:24;;;;;;;169.63;63.42;;;;;;;17.81;47.77;101725.63;5019468;28;20465;-72
2023/05/24 02:36:50;;;;;;;168.68;63.40;;;;;;;17.81;48.13;101730.94;5038087;28;20083;-71
2023/05/24 02:39:15;;;;;;;168.55;64.20;;;;;;;17.82;47.94;101727.34;5035508;28;20100;-72
2023/05/24 02:41:41;;;;;;;158.40;61.55;;;;;;;17.81;48.56;101728.28;5039210;28;20033;-72
2023/05/24 02:44:06;;;;;;;180.98;65.63;;;;;;;17.81;47.92;101728.28;5028195;28;20100;-71
2023/05/24 02:46:32;;;;;;;175.40;64.15;;;;;;;17.81;48.25;101736.22;5030022;28;20076;-72
2023/05/24 02:48:57;;;;;;;163.88;61.88;;;;;;;17.80;48.27;101730.03;5040484;28;20047;-72
2023/05/24 02:51:22;;;;;;;167.65;62.63;;;;;;;17.79;48.13;101733.59;5050360;28;20074;-71
2023/05/24 02:53:48;;;;;;;160.40;63.78;;;;;;;17.80;48.30;101734.47;5033724;28;20021;-71
2023/05/24 02:56:16;;;;;;;166.82;63.00;;;;;;;17.80;47.94;101737.13;5029521;28;20040;-72
2023/05/24 02:58:43;;;;;;;164.75;63.33;;;;;;;17.80;47.88;101737.13;5046604;28;20041;-72
2023/05/24 03:01:11;;;;;;;193.20;67.05;;;;;;;17.79;48.32;101735.38;5017563;28;20036;-73
2023/05/24 03:03:37;;;;;;;171.75;63.22;;;;;;;17.79;48.13;101738.03;5015859;28;20366;-73
2023/05/24 03:06:02;;;;;;;181.40;65.35;;;;;;;17.78;48.46;101729.25;5036020;28;20491;-73
2023/05/24 03:08:28;;;;;;;165.55;63.00;;;;;;;17.77;48.28;101731.94;5045353;28;20029;-74
2023/05/24 03:10:53;;;;;;;173.20;65.22;;;;;;;17.78;48.36;101728.34;5041968;28;20040;-74
2023/05/24 03:13:18;;;;;;;166.98;63.58;;;;;;;17.78;48.34;101728.34;5043233;28;20419;-73
2023/05/24 03:15:44;;;;;;;168.75;63.92;;;;;;;17.79;47.96;101732.75;5043792;28;20515;-73
2023/05/24 03:18:09;;;;;;;165.63;62.55;;;;;;;17.78;47.97;101725.72;5029330;28;20104;-73
2023/05/24 03:20:34;;;;;;;165.63;63.20;;;;;;;17.78;48.07;101723.06;5018013;28;20100;-73
2023/05/24 03:23:00;;;;;;;165.48;63.22;;;;;;;17.77;48.10;101722.22;5049019;28;20117;-73
2023/05/24 03:25:26;;;;;;;166.50;62.85;;;;;;;17.77;48.00;101722.22;5045277;28;20075;-73
2023/05/24 03:27:51;;;;;;;171.40;63.35;;;;;;;17.78;48.44;101712.50;5038227;28;20489;-74
2023/05/24 03:30:16;;;;;;;170.65;63.80;;;;;;;17.77;48.06;101716.06;5046861;28;20029;-73
2023/05/24 03:32:42;;;;;;;166.27;63.60;;;;;;;17.78;48.08;101720.44;5037940;28;20478;-73
2023/05/24 03:35:10;;;;;;;169.57;64.88;;;;;;;17.76;48.71;101717.84;5044194;28;20024;-74
2023/05/24 03:37:36;;;;;;;165.82;63.47;;;;;;;17.77;48.06;101713.44;5043954;28;20485;-74
2023/05/24 03:40:03;;;;;;;166.25;62.47;;;;;;;17.76;48.12;101711.69;5050816;28;20040;-73
2023/05/24 03:42:28;;;;;;;161.63;62.58;;;;;;;17.78;48.46;101717.78;5040129;28;20018;-74
2023/05/24 03:44:54;;;;;;;163.55;62.65;;;;;;;17.77;47.99;101716.06;5047295;28;20059;-74
2023/05/24 03:47:20;;;;;;;166.50;62.85;;;;;;;17.76;47.83;101719.63;5032447;28;20083;-74
2023/05/24 03:49:45;;;;;;;166.05;62.92;;;;;;;17.76;47.82;101717.84;5034689;28;20431;-73
2023/05/24 03:52:11;;;;;;;168.75;63.45;;;;;;;17.76;48.12;101716.97;5037117;28;20029;-73
2023/05/24 03:54:36;;;;;;;162.85;61.92;;;;;;;17.76;48.11;101724.91;5041361;28;20021;-73
2023/05/24 03:57:01;;;;;;;166.65;63.78;;;;;;;17.76;48.29;101717.84;5032871;28;20037;-74
2023/05/24 03:59:27;;;;;;;172.55;64.15;;;;;;;17.77;48.06;101726.66;5036888;28;20032;-73
2023/05/24 04:01:53;;;;;;;192.82;67.72;;;;;;;17.76;48.15;101735.47;5024761;28;20560;-71
2023/05/24 04:04:18;;;;;;;187.90;65.88;;;;;;;17.75;48.67;101739.88;5014627;28;20130;-71
2023/05/24 04:06:44;;;;;;;178.23;64.85;;;;;;;17.76;48.06;101735.47;5031530;28;20033;-71
2023/05/24 04:09:09;;;;;;;173.40;64.65;;;;;;;17.76;48.55;101740.75;5026759;28;20025;-72
2023/05/24 04:11:35;;;;;;;182.55;65.90;;;;;;;17.75;48.77;101734.59;5035818;28;20017;-72
2023/05/24 04:14:01;;;;;;;183.98;65.13;;;;;;;17.76;48.25;101735.47;5021330;28;20724;-71
2023/05/24 04:16:27;;;;;;;169.52;62.78;;;;;;;17.77;47.91;101737.22;5010465;28;20033;-72
2023/05/24 04:18:53;;;;;;;172.02;63.08;;;;;;;17.76;48.38;101740.75;5036971;28;20551;-71
2023/05/24 04:21:19;;;;;;;173.27;65.03;;;;;;;17.77;48.40;101747.78;5015906;28;20031;-72
2023/05/24 04:23:44;;;;;;;167.18;63.83;;;;;;;17.78;48.06;101741.56;5047109;28;20029;-71
2023/05/24 04:26:10;;;;;;;170.95;63.72;;;;;;;17.79;48.15;101745.94;5039122;28;20025;-71
2023/05/24 04:28:39;;;;;;;165.98;62.30;;;;;;;17.78;48.00;101738.94;5029143;28;20343;-71
2023/05/24 04:31:05;;;;;;;173.27;63.60;;;;;;;17.80;48.30;101739.75;5028504;28;20025;-71
2023/05/24 04:33:38;;;;;;;165.70;62.28;;;;;;;17.79;47.88;101738.03;5028342;28;20096;-71
2023/05/24 04:36:04;;;;;;;168.80;63.78;;;;;;;17.80;48.11;101737.13;5028565;28;20029;-71
2023/05/24 04:38:31;;;;;;;164.88;61.83;;;;;;;17.80;48.20;101742.41;5030443;28;20032;-71
2023/05/24 04:40:59;;;;;;;166.05;62.70;;;;;;;17.80;48.41;101743.25;5029099;28;20031;-70
2023/05/24 04:43:27;;;;;;;165.85;62.72;;;;;;;17.81;48.31;101738.84;5028826;28;20034;-71
2023/05/24 04:45:55;;;;;;;167.23;63.30;;;;;;;17.81;48.33;101738.84;5029752;28;20032;-71
2023/05/24 04:48:23;;;;;;;168.07;63.35;;;;;;;17.81;48.28;101739.72;5008727;28;20073;-71
2023/05/24 04:50:52;;;;;;;159.05;62.15;;;;;;;17.81;48.29;101745.00;5009232;28;20190;-71
2023/05/24 04:53:21;;;;;;;171.57;63.38;;;;;;;17.82;48.09;101740.56;5009033;28;20029;-71
2023/05/24 04:55:48;;;;;;;170.68;63.58;;;;;;;17.83;48.47;101747.59;5014958;28;20108;-71
2023/05/24 04:58:14;;;;;;;168.25;63.15;;;;;;;17.82;48.15;101748.50;5028640;28;20025;-71
2023/05/24 05:00:40;;;;;;;166.23;62.67;;;;;;;17.82;48.24;101751.13;5028974;28;20048;-71
2023/05/24 05:03:06;;;;;;;168.35;62.92;;;;;;;17.82;48.03;101757.31;5046371;28;20060;-71
2023/05/24 05:05:31;;;;;;;159.30;62.80;;;;;;;17.83;47.87;101759.03;5031601;28;21426;-71
2023/05/24 05:07:56;;;;;;;163.60;61.85;;;;;;;17.83;48.15;101758.16;5034143;28;20025;-71
2023/05/24 05:10:22;;;;;;;165.90;64.13;;;;;;;17.83;48.14;101758.16;5032584;28;20017;-71
2023/05/24 05:12:47;;;;;;;164.85;63.05;;;;;;;17.83;47.62;101763.44;5032657;28;20100;-71
2023/05/24 05:15:13;;;;;;;162.98;61.97;;;;;;;17.83;47.75;101763.44;5032120;28;20018;-71
2023/05/24 05:17:38;;;;;;;167.93;62.72;;;;;;;17.83;47.90;101766.09;5033682;28;20029;-71
2023/05/24 05:20:04;;;;;;;166.00;62.40;;;;;;;17.83;48.30;101772.25;5032456;28;20029;-71
2023/05/24 05:22:30;;;;;;;167.98;64.10;;;;;;;17.84;48.22;101765.19;5031995;28;20548;-71
2023/05/24 05:24:55;;;;;;;167.32;63.65;;;;;;;17.82;48.01;101767.00;5040471;28;20075;-70
2023/05/24 05:27:20;;;;;;;172.18;65.65;;;;;;;17.83;47.70;101764.31;5041752;28;20113;-72
2023/05/24 05:29:46;;;;;;;167.82;68.15;;;;;;;17.84;48.24;101760.75;5050810;28;20036;-72
2023/05/24 05:32:11;;;;;;;169.75;64.00;;;;;;;17.84;47.78;101765.19;5031972;28;20021;-71
2023/05/24 05:34:36;;;;;;;163.20;62.08;;;;;;;17.85;47.84;101766.91;5041146;28;20009;-71
2023/05/24 05:37:02;;;;;;;166.88;62.65;;;;;;;17.87;48.43;101765.09;5031590;28;20029;-71
2023/05/24 05:39:27;;;;;;;175.77;73.88;;;;;;;17.87;48.29;101767.72;5007410;28;20021;-72
2023/05/24 05:41:52;;;;;;;170.20;64.72;;;;;;;17.88;47.81;101772.09;5032085;28;20025;-71
2023/05/24 05:44:19;;;;;;;181.40;64.95;;;;;;;17.88;48.06;101772.97;5031715;28;20056;-71
2023/05/24 05:46:44;;;;;;;169.65;68.60;;;;;;;17.88;47.99;101775.59;5048113;28;20047;-71
2023/05/24 05:49:11;;;;;;;166.98;62.03;;;;;;;17.88;48.18;101772.09;5032590;28;20458;-71
2023/05/24 05:51:37;;;;;;;168.50;66.93;;;;;;;17.90;48.03;101770.28;5033006;28;20140;-71
2023/05/24 05:54:03;;;;;;;168.90;66.18;;;;;;;17.91;47.48;101772.00;5032529;28;20504;-71
2023/05/24 05:56:28;;;;;;;166.60;64.57;;;;;;;17.90;47.58;101776.44;5033322;28;20033;-71
2023/05/24 05:58:54;;;;;;;169.38;63.90;;;;;;;17.91;48.27;101782.56;5015822;28;20048;-71
2023/05/24 06:01:19;;;;;;;167.02;65.10;;;;;;;17.90;48.02;101781.72;5032069;28;20053;-71
2023/05/24 06:03:45;;;;;;;165.85;66.47;;;;;;;17.90;48.02;101791.41;5033245;28;20033;-72
2023/05/24 06:06:10;;;;;;;180.07;71.13;;;;;;;17.89;48.42;101790.56;5029844;28;20021;-70
2023/05/24 06:08:35;;;;;;;176.23;67.60;;;;;;;17.90;48.34;101791.41;5053237;28;20502;-72
2023/05/24 06:11:01;;;;;;;177.32;65.55;;;;;;;17.90;48.14;101791.41;5019650;28;20058;-71
2023/05/24 06:13:27;;;;;;;171.02;69.40;;;;;;;17.90;47.68;101807.28;5031712;28;20028;-71
2023/05/24 06:15:53;;;;;;;161.13;64.90;;;;;;;17.89;48.17;101806.41;5020009;28;20113;-71
2023/05/24 06:18:19;;;;;;;174.18;64.88;;;;;;;17.89;48.04;101805.56;5031334;28;20076;-71
2023/05/24 06:20:45;;;;;;;169.25;71.03;;;;;;;17.90;47.73;101808.16;5012967;28;20109;-70
2023/05/24 06:23:10;;;;;;;172.10;64.40;;;;;;;17.90;47.82;101813.44;5033424;28;20115;-71
2023/05/24 06:25:37;;;;;;;168.55;63.80;;;;;;;17.91;47.70;101814.28;5033614;28;20018;-71
2023/05/24 06:28:02;;;;;;;175.40;63.90;;;;;;;17.91;47.74;101809.00;5039801;28;20315;-71
2023/05/24 06:30:28;;;;;;;165.70;61.58;;;;;;;17.93;48.17;101815.16;5058613;22;20041;-70
2023/05/24 06:32:53;;;;;;;164.77;62.72;;;;;;;17.93;47.83;101812.53;5060639;28;20020;-71
2023/05/24 06:35:18;;;;;;;162.30;60.63;;;;;;;17.94;47.82;101814.22;5058987;28;20389;-70
2023/05/24 06:37:44;;;;;;;164.95;61.45;;;;;;;17.95;47.74;101815.13;5054297;28;20082;-71
2023/05/24 06:40:10;;;;;;;163.18;60.47;;;;;;;17.97;47.63;101819.44;5051570;28;20023;-71
2023/05/24 06:42:36;;;;;;;161.82;60.13;;;;;;;18.02;47.78;101821.94;5051788;28;20048;-71
2023/05/24 06:45:02;;;;;;;169.13;61.83;;;;;;;18.06;47.48;101829.75;5066319;28;20128;-71
2023/05/24 06:47:27;;;;;;;164.77;61.20;;;;;;;18.12;47.62;101827.81;5051756;28;20024;-71
2023/05/24 06:49:52;;;;;;;163.45;61.25;;;;;;;18.17;47.65;101832.06;5062524;28;20017;-71
2023/05/24 06:52:18;;;;;;;167.55;62.95;;;;;;;18.21;47.19;101838.97;5058933;28;20047;-71
2023/05/24 06:54:43;;;;;;;161.50;60.30;;;;;;;18.27;46.84;101848.53;5035996;28;20032;-70
2023/05/24 06:57:09;;;;;;;169.23;61.83;;;;;;;18.30;46.69;101848.44;5053543;28;20055;-71
2023/05/24 06:59:34;;;;;;;162.10;60.80;;;;;;;18.31;46.37;101854.56;5040442;28;20098;-71
2023/05/24 07:02:00;;;;;;;156.32;61.28;;;;;;;18.31;46.97;101860.75;5064012;28;20024;-70
2023/05/24 07:04:25;;;;;;;170.85;63.13;;;;;;;18.31;46.84;101860.75;5036018;28;20060;-70
2023/05/24 07:06:51;;;;;;;175.38;63.17;;;;;;;18.30;46.91;101863.44;5066437;28;20058;-71
2023/05/24 07:09:17;;;;;;;171.38;62.88;;;;;;;18.27;47.02;101860.88;5069400;28;20028;-70
2023/05/24 07:11:43;;;;;;;170.98;62.13;;;;;;;18.26;47.15;101865.31;5070675;28;20063;-71
2023/05/24 07:14:08;;;;;;;185.32;64.65;;;;;;;18.24;46.99;101854.78;5070216;28;20056;-71
2023/05/24 07:16:33;;;;;;;164.80;61.15;;;;;;;18.24;47.33;101864.47;5056033;28;20496;-71
2023/05/24 07:18:59;;;;;;;169.68;62.05;;;;;;;18.22;46.42;101858.38;5050448;28;20036;-71
2023/05/24 07:21:24;;;;;;;169.40;61.47;;;;;;;18.22;46.95;101866.31;5049401;28;20098;-71
2023/05/24 07:23:50;;;;;;;169.20;63.38;;;;;;;18.20;47.28;101869.00;5050527;28;20476;-71
2023/05/24 07:26:16;;;;;;;164.18;61.53;;;;;;;18.21;46.59;101867.22;5039034;28;20021;-71
2023/05/24 07:28:41;;;;;;;159.23;61.00;;;;;;;18.18;47.30;101864.66;5033052;28;20033;-71
2023/05/24 07:31:08;;;;;;;169.13;62.60;;;;;;;18.19;46.88;101874.34;5050713;28;20027;-70
2023/05/24 07:33:36;;;;;;;165.68;61.63;;;;;;;18.18;46.66;101868.16;5050990;28;20024;-70
2023/05/24 07:36:02;;;;;;;162.02;60.70;;;;;;;18.20;47.21;101862.81;5050478;28;20052;-70
2023/05/24 07:38:28;;;;;;;165.52;61.17;;;;;;;18.22;47.23;101861.88;5052132;28;20144;-70
2023/05/24 07:40:53;;;;;;;164.35;61.15;;;;;;;18.25;47.25;101858.28;5051106;28;20028;-70
2023/05/24 07:43:18;;;;;;;162.93;61.10;;;;;;;18.30;46.62;101853.72;5050787;28;20121;-71
2023/05/24 07:45:44;;;;;;;160.85;63.30;;;;;;;18.34;46.53;101858.00;5051445;28;20025;-71
2023/05/24 07:48:10;;;;;;;161.52;60.65;;;;;;;18.38;46.58;101862.28;5033988;28;20504;-71
2023/05/24 07:50:36;;;;;;;159.15;60.63;;;;;;;18.42;46.24;101858.63;5050606;28;20112;-71
2023/05/24 07:53:01;;;;;;;161.95;60.67;;;;;;;18.48;46.38;101869.94;5050663;28;20401;-72
2023/05/24 07:55:27;;;;;;;161.57;61.67;;;;;;;18.48;46.07;101872.59;5051308;28;20028;-71
2023/05/24 07:57:52;;;;;;;162.38;61.45;;;;;;;18.45;45.88;101884.13;5052071;28;20021;-72
2023/05/24 08:00:18;;;;;;;163.98;62.67;;;;;;;18.44;46.57;101878.91;5050756;28;20440;-72
2023/05/24 08:02:45;;;;;;;159.05;60.42;;;;;;;18.41;46.84;101877.22;5033974;28;20036;-71
2023/05/24 08:05:13;;;;;;;162.18;61.70;;;;;;;18.40;46.49;101876.31;5051200;28;20059;-71
2023/05/24 08:07:40;;;;;;;162.93;61.95;;;;;;;18.37;46.02;101875.56;5050519;28;20027;-71
2023/05/24 08:10:06;;;;;;;160.07;61.35;;;;;;;18.35;46.48;101878.25;5050358;28;20032;-71
2023/05/24 08:12:32;;;;;;;159.95;60.17;;;;;;;18.35;46.46;101878.25;5066563;28;20036;-72
2023/05/24 08:14:57;;;;;;;155.77;60.38;;;;;;;18.34;46.92;101880.94;5049787;28;20021;-71
2023/05/24 08:17:22;;;;;;;163.02;61.08;;;;;;;18.33;47.06;101885.34;5050431;28;20028;-71
2023/05/24 08:19:48;;;;;;;165.10;61.63;;;;;;;18.35;46.42;101878.25;5050569;28;20017;-71
2023/05/24 08:22:13;;;;;;;160.63;60.85;;;;;;;18.39;46.55;101879.91;5051664;28;20024;-72
2023/05/24 08:24:38;;;;;;;161.32;60.13;;;;;;;18.42;45.97;101886.88;5049777;28;20056;-71
2023/05/24 08:27:04;;;;;;;159.05;61.25;;;;;;;18.50;46.21;101886.63;5050412;28;20068;-71
2023/05/24 08:29:29;;;;;;;171.15;63.78;;;;;;;18.54;46.56;101883.84;5050077;28;20036;-70
2023/05/24 08:31:55;;;;;;;162.10;61.90;;;;;;;18.58;46.09;101882.84;5050346;28;20547;-71
2023/05/24 08:34:20;;;;;;;175.38;62.60;;;;;;;18.62;45.68;101894.19;5050984;28;20111;-71
2023/05/24 08:36:46;;;;;;;159.50;60.50;;;;;;;18.61;46.24;101888.94;5050295;28;20437;-71
2023/05/24 08:39:11;;;;;;;154.00;61.03;;;;;;;18.57;46.16;101889.03;5054437;28;20349;-71
2023/05/24 08:41:37;;;;;;;161.77;61.72;;;;;;;18.54;46.40;101888.25;5054203;28;20032;-71
2023/05/24 08:44:06;;;;;;;165.30;61.50;;;;;;;18.50;46.17;101891.91;5054948;28;20033;-70
2023/05/24 08:46:35;;;;;;;162.05;61.70;;;;;;;18.45;46.56;101899.13;5054128;28;20025;-71
2023/05/24 08:49:02;;;;;;;163.98;60.80;;;;;;;18.45;46.38;101909.69;5070709;28;20036;-71
2023/05/24 08:51:28;;;;;;;163.77;60.90;;;;;;;18.43;46.26;101907.09;5055096;28;20056;-71
2023/05/24 08:53:54;;;;;;;163.35;60.70;;;;;;;18.43;46.68;101904.47;5053794;28;20025;-71
2023/05/24 08:56:20;;;;;;;158.80;60.00;;;;;;;18.43;46.24;101909.75;5053749;28;20025;-71
2023/05/24 08:58:46;;;;;;;161.48;61.25;;;;;;;18.46;46.73;101914.09;5037552;28;20021;-71
2023/05/24 09:01:13;;;;;;;162.07;60.42;;;;;;;18.48;46.56;101915.78;5054958;28;20371;-72
2023/05/24 09:03:39;;;;;;;156.02;59.50;;;;;;;18.53;45.98;101918.31;5054018;28;20274;-73
2023/05/24 09:06:06;;;;;;;163.60;62.13;;;;;;;18.58;45.96;101927.81;5070276;28;20389;-71
2023/05/24 09:08:33;;;;;;;162.25;59.78;;;;;;;18.66;45.55;101919.63;5053717;28;20032;-71
2023/05/24 09:10:59;;;;;;;163.68;62.20;;;;;;;18.75;45.60;101919.34;5053857;28;20107;-71
2023/05/24 09:13:25;;;;;;;163.65;60.75;;;;;;;18.87;45.19;101917.22;5054786;28;20070;-71
2023/05/24 09:15:51;;;;;;;161.75;61.13;;;;;;;19.02;44.57;101919.44;5052996;28;20098;-71
2023/05/24 09:18:17;;;;;;;165.15;61.67;;;;;;;19.15;44.52;101911.09;5036764;28;20482;-71
2023/05/24 09:20:42;;;;;;;161.75;61.20;;;;;;;19.27;44.16;101915.13;5053458;28;20074;-71
2023/05/24 09:23:07;;;;;;;162.07;61.97;;;;;;;19.30;44.41;101926.47;5036007;28;20397;-71
2023/05/24 09:25:33;;;;;;;163.75;62.55;;;;;;;19.34;44.45;101914.84;5052849;28;20401;-71
2023/05/24 09:28:05;;;;;;;161.77;61.38;;;;;;;19.39;44.11;101920.00;5053841;28;20078;-72
2023/05/24 09:30:30;;;;;;;161.35;60.38;;;;;;;19.40;44.04;101927.91;5053692;28;20058;-71
2023/05/24 09:32:57;;;;;;;160.88;60.70;;;;;;;19.35;44.03;101921.88;5054985;28;20024;-71
2023/05/24 09:35:25;;;;;;;160.48;60.55;;;;;;;19.31;44.21;101932.66;5054167;28;20025;-72
2023/05/24 09:37:54;;;;;;;163.80;62.08;;;;;;;19.24;44.46;101932.84;5054795;28;20094;-73
2023/05/24 09:40:19;;;;;;;156.93;62.35;;;;;;;19.18;44.56;101935.72;5053430;28;20036;-71
2023/05/24 09:42:45;;;;;;;155.48;61.50;;;;;;;19.13;44.52;101942.03;5053266;28;20307;-70
2023/05/24 09:45:11;;;;;;;160.00;60.42;;;;;;;19.08;44.71;101943.06;5052624;28;20108;-70
2023/05/24 09:47:39;;;;;;;162.05;60.95;;;;;;;19.07;44.44;101936.06;5053389;28;20056;-71
2023/05/24 09:50:08;;;;;;;158.10;60.58;;;;;;;19.08;44.94;101943.06;5052172;28;20069;-71
2023/05/24 09:52:37;;;;;;;157.30;62.78;;;;;;;19.11;44.16;101938.59;5052890;28;20612;-71
2023/05/24 09:55:19;;;;;;;160.38;61.72;;;;;;;19.15;44.28;101943.72;5052451;28;20470;-71
2023/05/24 09:57:49;;;;;;;164.25;60.53;;;;;;;19.19;43.91;101939.22;5054000;28;20017;-71
2023/05/24 10:00:21;;;;;;;156.82;60.13;;;;;;;19.25;44.00;101928.41;5054224;28;20025;-71
2023/05/24 10:02:59;;;;;;;165.48;62.03;;;;;;;19.29;44.13;101932.66;5036152;28;20116;-71
2023/05/24 10:05:25;;;;;;;160.75;60.33;;;;;;;19.31;43.88;101928.22;5054780;28;20104;-71
2023/05/24 10:07:51;;;;;;;166.68;62.67;;;;;;;19.34;43.53;101938.69;5033396;28;20108;-73
2023/05/24 10:10:16;;;;;;;162.70;60.83;;;;;;;19.36;44.00;101941.28;5053577;28;20074;-73
2023/05/24 10:12:45;;;;;;;160.65;61.50;;;;;;;19.37;44.12;101940.38;5052618;28;20386;-72
2023/05/24 10:15:11;;;;;;;160.18;61.38;;;;;;;19.39;43.73;101939.41;5052146;28;20442;-72
2023/05/24 10:17:36;;;;;;;161.25;61.20;;;;;;;19.39;43.67;101942.06;5035967;28;20052;-71
2023/05/24 10:20:03;;;;;;;162.00;61.65;;;;;;;19.36;43.48;101941.28;5052671;28;20017;-72
2023/05/24 10:22:29;;;;;;;162.07;60.70;;;;;;;19.32;44.13;101942.31;5052530;28;20020;-72
2023/05/24 10:24:58;;;;;;;164.98;62.10;;;;;;;19.24;44.10;101948.72;5051806;28;20033;-73
2023/05/24 10:27:29;;;;;;;162.55;62.13;;;;;;;19.20;44.59;101951.53;5052381;28;20025;-73
2023/05/24 10:30:10;;;;;;;163.70;62.50;;;;;;;19.14;44.41;101949.97;5052469;28;20037;-73
2023/05/24 10:32:37;;;;;;;165.70;61.30;;;;;;;19.07;44.48;101949.28;5052405;28;20025;-75
2023/05/24 10:35:03;;;;;;;159.70;60.95;;;;;;;19.02;44.65;101952.97;5035257;28;20433;-72
2023/05/24 10:37:30;;;;;;;162.30;61.97;;;;;;;18.96;45.23;101948.75;5052247;28;20032;-74
2023/05/24 10:39:57;;;;;;;160.73;61.03;;;;;;;18.94;44.76;101955.00;5035425;28;20079;-74
2023/05/24 10:42:22;;;;;;;163.10;62.92;;;;;;;18.94;44.65;101950.59;5035306;28;20545;-74
2023/05/24 10:44:48;;;;;;;160.77;60.83;;;;;;;19.00;44.95;101950.38;5051112;28;20218;-74
2023/05/24 10:47:15;;;;;;;161.40;61.45;;;;;;;19.08;44.75;101953.66;5052028;28;20398;-74
2023/05/24 10:49:53;;;;;;;160.75;60.63;;;;;;;19.16;44.71;101949.91;5035628;28;20098;-74
2023/05/24 10:52:18;;;;;;;161.07;59.80;;;;;;;19.21;43.87;101955.91;5051947;28;20021;-74
2023/05/24 10:55:08;;;;;;;159.82;59.50;;;;;;;19.28;43.94;101954.81;5051370;28;20032;-74
2023/05/24 10:57:34;;;;;;;155.18;60.20;;;;;;;19.32;43.78;101948.50;5051580;28;20026;-74
2023/05/24 11:00:23;;;;;;;153.85;60.50;;;;;;;19.39;44.01;101951.81;5052215;28;20032;-72